Griffithtown, Arkansas
Current Conditions -  °F | °C
As of 12:56 PM on Friday 28 Nov 2014 (Local Time) from KADF Reporting Station
Clear Clear  
Wind Chill: 14°   Ceiling: Unl
Heat Index: 14°   Visibility: 10mi
Dew Point:   Wind: 10mph
Humidity: 47%   Direction: 180°S
Pressure: 30.21"   Gusts: NA
Location:  34.0941°N, 93.0475°W
Report Text: KADF 281856Z AUTO 18009KT 10SM CLR 14/03 A3021 RMK AO2 T01440033 SLP244
Loading
Personal Weather Stations






























Interactive Weather Map New forecast layout! Learn more

10-Day Weather Forecast

Advertisements
Track Severe Weather on mobile